sensor_id;sensor_type;location;lat;lon;timestamp;P1;durP1;ratioP1;P2;durP2;ratioP2
39524;SDS011;25203;50.754;6.978;2023-07-31T00:00:05;8.27;;;3.58;;
39524;SDS011;25203;50.754;6.978;2023-07-31T00:02:06;7.20;;;3.10;;
39524;SDS011;25203;50.754;6.978;2023-07-31T00:04:06;7.40;;;3.78;;
39524;SDS011;25203;50.754;6.978;2023-07-31T00:06:07;10.93;;;3.40;;
39524;SDS011;25203;50.754;6.978;2023-07-31T00:08:08;8.55;;;3.83;;
39524;SDS011;25203;50.754;6.978;2023-07-31T00:10:08;8.40;;;3.50;;
39524;SDS011;25203;50.754;6.978;2023-07-31T00:12:09;5.80;;;3.42;;
39524;SDS011;25203;50.754;6.978;2023-07-31T00:14:10;7.03;;;3.15;;
39524;SDS011;25203;50.754;6.978;2023-07-31T00:16:10;6.43;;;3.30;;
39524;SDS011;25203;50.754;6.978;2023-07-31T00:18:11;5.95;;;3.67;;
39524;SDS011;25203;50.754;6.978;2023-07-31T00:20:11;7.22;;;3.45;;
39524;SDS011;25203;50.754;6.978;2023-07-31T00:22:12;8.88;;;3.88;;
39524;SDS011;25203;50.754;6.978;2023-07-31T00:24:12;5.78;;;2.97;;
39524;SDS011;25203;50.754;6.978;2023-07-31T00:26:13;7.75;;;3.00;;
39524;SDS011;25203;50.754;6.978;2023-07-31T00:28:14;5.50;;;2.90;;
39524;SDS011;25203;50.754;6.978;2023-07-31T00:30:14;8.40;;;3.33;;
39524;SDS011;25203;50.754;6.978;2023-07-31T00:32:16;6.00;;;2.80;;
39524;SDS011;25203;50.754;6.978;2023-07-31T00:34:16;6.03;;;2.70;;
39524;SDS011;25203;50.754;6.978;2023-07-31T00:36:17;7.20;;;2.65;;
39524;SDS011;25203;50.754;6.978;2023-07-31T00:38:18;4.57;;;2.25;;
39524;SDS011;25203;50.754;6.978;2023-07-31T00:40:18;7.28;;;2.72;;
39524;SDS011;25203;50.754;6.978;2023-07-31T00:42:19;4.13;;;2.45;;
39524;SDS011;25203;50.754;6.978;2023-07-31T00:44:19;4.90;;;3.10;;
39524;SDS011;25203;50.754;6.978;2023-07-31T00:46:20;7.93;;;3.20;;
39524;SDS011;25203;50.754;6.978;2023-07-31T00:48:21;6.18;;;2.97;;
39524;SDS011;25203;50.754;6.978;2023-07-31T00:50:23;4.53;;;2.40;;
39524;SDS011;25203;50.754;6.978;2023-07-31T00:52:25;5.70;;;2.13;;
39524;SDS011;25203;50.754;6.978;2023-07-31T00:54:25;5.43;;;2.45;;
39524;SDS011;25203;50.754;6.978;2023-07-31T00:56:26;9.43;;;2.60;;
39524;SDS011;25203;50.754;6.978;2023-07-31T00:58:28;6.30;;;2.58;;
39524;SDS011;25203;50.754;6.978;2023-07-31T01:00:29;6.72;;;2.90;;
39524;SDS011;25203;50.754;6.978;2023-07-31T01:02:29;4.55;;;2.70;;
39524;SDS011;25203;50.754;6.978;2023-07-31T01:04:30;4.35;;;2.53;;
39524;SDS011;25203;50.754;6.978;2023-07-31T01:06:44;4.45;;;2.45;;
39524;SDS011;25203;50.754;6.978;2023-07-31T01:11:05;3.88;;;2.75;;
39524;SDS011;25203;50.754;6.978;2023-07-31T01:13:14;3.97;;;2.45;;
39524;SDS011;25203;50.754;6.978;2023-07-31T01:15:15;9.05;;;2.70;;
39524;SDS011;25203;50.754;6.978;2023-07-31T01:17:17;6.03;;;2.78;;
39524;SDS011;25203;50.754;6.978;2023-07-31T01:19:18;6.63;;;2.40;;
39524;SDS011;25203;50.754;6.978;2023-07-31T01:28:27;4.25;;;2.78;;
39524;SDS011;25203;50.754;6.978;2023-07-31T01:30:37;6.57;;;2.53;;
39524;SDS011;25203;50.754;6.978;2023-07-31T01:32:45;5.45;;;2.80;;
39524;SDS011;25203;50.754;6.978;2023-07-31T01:34:47;4.60;;;3.05;;
39524;SDS011;25203;50.754;6.978;2023-07-31T01:36:49;8.43;;;2.95;;
39524;SDS011;25203;50.754;6.978;2023-07-31T01:38:49;4.05;;;2.35;;
39524;SDS011;25203;50.754;6.978;2023-07-31T01:40:50;3.83;;;2.63;;
39524;SDS011;25203;50.754;6.978;2023-07-31T01:42:52;4.72;;;2.75;;
39524;SDS011;25203;50.754;6.978;2023-07-31T01:44:53;4.53;;;2.90;;
39524;SDS011;25203;50.754;6.978;2023-07-31T01:46:54;5.15;;;2.85;;
39524;SDS011;25203;50.754;6.978;2023-07-31T01:48:54;4.95;;;2.83;;
39524;SDS011;25203;50.754;6.978;2023-07-31T01:50:55;5.75;;;3.00;;
39524;SDS011;25203;50.754;6.978;2023-07-31T01:52:55;7.10;;;3.20;;
39524;SDS011;25203;50.754;6.978;2023-07-31T01:54:56;5.00;;;3.20;;
39524;SDS011;25203;50.754;6.978;2023-07-31T01:56:56;7.47;;;3.47;;
39524;SDS011;25203;50.754;6.978;2023-07-31T01:58:57;6.88;;;2.90;;
39524;SDS011;25203;50.754;6.978;2023-07-31T02:00:57;5.22;;;3.03;;
39524;SDS011;25203;50.754;6.978;2023-07-31T02:02:59;6.63;;;3.55;;
39524;SDS011;25203;50.754;6.978;2023-07-31T02:04:59;8.25;;;3.78;;
39524;SDS011;25203;50.754;6.978;2023-07-31T02:07:00;6.45;;;3.55;;
39524;SDS011;25203;50.754;6.978;2023-07-31T02:09:01;8.07;;;3.58;;
39524;SDS011;25203;50.754;6.978;2023-07-31T02:11:01;6.22;;;3.17;;
39524;SDS011;25203;50.754;6.978;2023-07-31T02:13:02;6.03;;;3.58;;
39524;SDS011;25203;50.754;6.978;2023-07-31T02:15:03;6.55;;;3.33;;
39524;SDS011;25203;50.754;6.978;2023-07-31T02:17:04;7.18;;;3.65;;
39524;SDS011;25203;50.754;6.978;2023-07-31T02:19:05;6.68;;;3.35;;
39524;SDS011;25203;50.754;6.978;2023-07-31T02:21:06;5.35;;;3.58;;
39524;SDS011;25203;50.754;6.978;2023-07-31T02:23:07;5.55;;;3.58;;
39524;SDS011;25203;50.754;6.978;2023-07-31T02:25:07;6.78;;;3.08;;
39524;SDS011;25203;50.754;6.978;2023-07-31T02:27:08;6.90;;;3.83;;
39524;SDS011;25203;50.754;6.978;2023-07-31T02:29:09;7.70;;;3.65;;
39524;SDS011;25203;50.754;6.978;2023-07-31T02:31:09;8.13;;;3.50;;
39524;SDS011;25203;50.754;6.978;2023-07-31T02:33:10;8.18;;;3.90;;
39524;SDS011;25203;50.754;6.978;2023-07-31T02:35:10;7.15;;;3.75;;
39524;SDS011;25203;50.754;6.978;2023-07-31T02:37:15;6.82;;;3.33;;
39524;SDS011;25203;50.754;6.978;2023-07-31T02:39:15;7.40;;;3.15;;
39524;SDS011;25203;50.754;6.978;2023-07-31T02:41:16;8.77;;;3.50;;
39524;SDS011;25203;50.754;6.978;2023-07-31T02:43:16;9.90;;;3.47;;
39524;SDS011;25203;50.754;6.978;2023-07-31T02:45:17;8.15;;;3.47;;
39524;SDS011;25203;50.754;6.978;2023-07-31T02:47:18;9.10;;;3.22;;
39524;SDS011;25203;50.754;6.978;2023-07-31T02:49:18;9.75;;;4.35;;
39524;SDS011;25203;50.754;6.978;2023-07-31T02:51:19;11.75;;;3.65;;
39524;SDS011;25203;50.754;6.978;2023-07-31T02:53:21;9.27;;;3.63;;
39524;SDS011;25203;50.754;6.978;2023-07-31T02:55:23;9.30;;;3.58;;
39524;SDS011;25203;50.754;6.978;2023-07-31T02:57:23;8.57;;;3.10;;
39524;SDS011;25203;50.754;6.978;2023-07-31T02:59:24;6.55;;;3.28;;
39524;SDS011;25203;50.754;6.978;2023-07-31T03:01:25;7.55;;;3.55;;
39524;SDS011;25203;50.754;6.978;2023-07-31T03:03:25;8.88;;;3.80;;
39524;SDS011;25203;50.754;6.978;2023-07-31T03:05:26;8.30;;;4.05;;
39524;SDS011;25203;50.754;6.978;2023-07-31T03:07:27;8.88;;;3.42;;
39524;SDS011;25203;50.754;6.978;2023-07-31T03:09:28;8.23;;;4.43;;
39524;SDS011;25203;50.754;6.978;2023-07-31T03:11:29;8.68;;;3.45;;
39524;SDS011;25203;50.754;6.978;2023-07-31T03:13:29;8.55;;;3.47;;
39524;SDS011;25203;50.754;6.978;2023-07-31T03:15:30;7.88;;;3.83;;
39524;SDS011;25203;50.754;6.978;2023-07-31T03:17:30;6.50;;;3.38;;
39524;SDS011;25203;50.754;6.978;2023-07-31T03:19:31;13.07;;;3.67;;
39524;SDS011;25203;50.754;6.978;2023-07-31T03:21:32;8.85;;;4.05;;
39524;SDS011;25203;50.754;6.978;2023-07-31T03:23:33;8.40;;;3.75;;
39524;SDS011;25203;50.754;6.978;2023-07-31T03:25:33;8.60;;;3.90;;
39524;SDS011;25203;50.754;6.978;2023-07-31T03:27:34;6.70;;;3.50;;
39524;SDS011;25203;50.754;6.978;2023-07-31T03:29:34;7.18;;;3.30;;
39524;SDS011;25203;50.754;6.978;2023-07-31T03:31:35;8.15;;;3.67;;
39524;SDS011;25203;50.754;6.978;2023-07-31T03:33:35;6.65;;;3.15;;
39524;SDS011;25203;50.754;6.978;2023-07-31T03:35:36;6.03;;;3.40;;
39524;SDS011;25203;50.754;6.978;2023-07-31T03:37:37;14.80;;;4.18;;
39524;SDS011;25203;50.754;6.978;2023-07-31T03:39:37;7.80;;;3.42;;
39524;SDS011;25203;50.754;6.978;2023-07-31T03:41:38;9.65;;;3.80;;
39524;SDS011;25203;50.754;6.978;2023-07-31T03:43:39;5.50;;;3.17;;
39524;SDS011;25203;50.754;6.978;2023-07-31T03:45:39;8.10;;;3.15;;
39524;SDS011;25203;50.754;6.978;2023-07-31T03:47:40;7.85;;;3.58;;
39524;SDS011;25203;50.754;6.978;2023-07-31T03:49:40;7.00;;;3.45;;
39524;SDS011;25203;50.754;6.978;2023-07-31T03:51:41;9.10;;;3.58;;
39524;SDS011;25203;50.754;6.978;2023-07-31T03:53:42;7.78;;;3.55;;
39524;SDS011;25203;50.754;6.978;2023-07-31T03:55:43;9.57;;;3.85;;
39524;SDS011;25203;50.754;6.978;2023-07-31T03:57:43;9.60;;;3.70;;
39524;SDS011;25203;50.754;6.978;2023-07-31T03:59:44;9.65;;;3.83;;
39524;SDS011;25203;50.754;6.978;2023-07-31T04:01:44;6.30;;;3.58;;
39524;SDS011;25203;50.754;6.978;2023-07-31T04:03:45;6.05;;;3.53;;
39524;SDS011;25203;50.754;6.978;2023-07-31T04:05:46;7.18;;;3.65;;
39524;SDS011;25203;50.754;6.978;2023-07-31T04:07:46;7.35;;;3.80;;
39524;SDS011;25203;50.754;6.978;2023-07-31T04:09:47;6.57;;;3.65;;
39524;SDS011;25203;50.754;6.978;2023-07-31T04:11:47;9.07;;;3.95;;
39524;SDS011;25203;50.754;6.978;2023-07-31T04:13:48;7.00;;;3.50;;
39524;SDS011;25203;50.754;6.978;2023-07-31T04:15:49;6.35;;;3.58;;
39524;SDS011;25203;50.754;6.978;2023-07-31T04:17:54;6.88;;;3.20;;
39524;SDS011;25203;50.754;6.978;2023-07-31T04:19:54;8.27;;;3.65;;
39524;SDS011;25203;50.754;6.978;2023-07-31T04:21:55;6.32;;;3.47;;
39524;SDS011;25203;50.754;6.978;2023-07-31T04:23:55;6.55;;;3.22;;
39524;SDS011;25203;50.754;6.978;2023-07-31T04:25:56;6.93;;;3.42;;
39524;SDS011;25203;50.754;6.978;2023-07-31T04:27:57;5.53;;;3.70;;
39524;SDS011;25203;50.754;6.978;2023-07-31T04:29:57;6.60;;;3.47;;
39524;SDS011;25203;50.754;6.978;2023-07-31T04:31:58;7.80;;;3.78;;
39524;SDS011;25203;50.754;6.978;2023-07-31T04:33:58;7.32;;;3.28;;
39524;SDS011;25203;50.754;6.978;2023-07-31T04:35:59;5.65;;;3.85;;
39524;SDS011;25203;50.754;6.978;2023-07-31T04:37:59;5.70;;;3.83;;
39524;SDS011;25203;50.754;6.978;2023-07-31T04:40:00;6.15;;;4.25;;
39524;SDS011;25203;50.754;6.978;2023-07-31T04:42:01;6.60;;;4.45;;
39524;SDS011;25203;50.754;6.978;2023-07-31T04:44:01;8.07;;;4.68;;
39524;SDS011;25203;50.754;6.978;2023-07-31T04:46:03;7.40;;;4.30;;
39524;SDS011;25203;50.754;6.978;2023-07-31T04:48:04;7.57;;;3.80;;
39524;SDS011;25203;50.754;6.978;2023-07-31T04:50:05;5.78;;;3.88;;
39524;SDS011;25203;50.754;6.978;2023-07-31T04:52:06;6.63;;;3.92;;
39524;SDS011;25203;50.754;6.978;2023-07-31T04:54:07;9.55;;;3.95;;
39524;SDS011;25203;50.754;6.978;2023-07-31T04:56:07;5.07;;;3.63;;
39524;SDS011;25203;50.754;6.978;2023-07-31T04:58:08;6.82;;;3.78;;
39524;SDS011;25203;50.754;6.978;2023-07-31T05:00:08;9.93;;;3.63;;
39524;SDS011;25203;50.754;6.978;2023-07-31T05:02:11;5.90;;;4.10;;
39524;SDS011;25203;50.754;6.978;2023-07-31T05:04:13;6.22;;;3.60;;
39524;SDS011;25203;50.754;6.978;2023-07-31T05:06:14;5.53;;;4.05;;
39524;SDS011;25203;50.754;6.978;2023-07-31T05:08:15;7.40;;;3.90;;
39524;SDS011;25203;50.754;6.978;2023-07-31T05:10:17;7.30;;;3.70;;
39524;SDS011;25203;50.754;6.978;2023-07-31T05:12:18;9.32;;;3.88;;
39524;SDS011;25203;50.754;6.978;2023-07-31T05:14:18;6.28;;;3.65;;
39524;SDS011;25203;50.754;6.978;2023-07-31T05:16:20;4.80;;;3.58;;
39524;SDS011;25203;50.754;6.978;2023-07-31T05:18:20;5.85;;;3.40;;
39524;SDS011;25203;50.754;6.978;2023-07-31T05:20:21;8.68;;;3.78;;
39524;SDS011;25203;50.754;6.978;2023-07-31T05:22:21;6.00;;;3.70;;
39524;SDS011;25203;50.754;6.978;2023-07-31T05:24:22;4.35;;;3.47;;
39524;SDS011;25203;50.754;6.978;2023-07-31T05:26:23;6.50;;;3.70;;
39524;SDS011;25203;50.754;6.978;2023-07-31T05:28:23;4.93;;;3.40;;
39524;SDS011;25203;50.754;6.978;2023-07-31T05:30:24;4.43;;;3.22;;
39524;SDS011;25203;50.754;6.978;2023-07-31T05:32:25;6.28;;;3.60;;
39524;SDS011;25203;50.754;6.978;2023-07-31T05:34:25;6.85;;;3.55;;
39524;SDS011;25203;50.754;6.978;2023-07-31T05:36:26;7.93;;;3.15;;
39524;SDS011;25203;50.754;6.978;2023-07-31T05:38:26;5.20;;;3.30;;
39524;SDS011;25203;50.754;6.978;2023-07-31T05:40:27;8.52;;;3.70;;
39524;SDS011;25203;50.754;6.978;2023-07-31T05:42:28;5.57;;;3.35;;
39524;SDS011;25203;50.754;6.978;2023-07-31T05:44:28;6.20;;;3.42;;
39524;SDS011;25203;50.754;6.978;2023-07-31T05:46:29;5.60;;;3.33;;
39524;SDS011;25203;50.754;6.978;2023-07-31T05:48:31;4.88;;;3.30;;
39524;SDS011;25203;50.754;6.978;2023-07-31T05:50:31;6.75;;;3.80;;
39524;SDS011;25203;50.754;6.978;2023-07-31T05:52:32;6.72;;;3.45;;
39524;SDS011;25203;50.754;6.978;2023-07-31T05:54:33;5.85;;;3.35;;
39524;SDS011;25203;50.754;6.978;2023-07-31T05:56:33;7.43;;;3.35;;
39524;SDS011;25203;50.754;6.978;2023-07-31T05:58:34;6.63;;;3.50;;
39524;SDS011;25203;50.754;6.978;2023-07-31T06:00:35;8.10;;;4.03;;
39524;SDS011;25203;50.754;6.978;2023-07-31T06:02:35;6.85;;;3.22;;
39524;SDS011;25203;50.754;6.978;2023-07-31T06:04:36;5.50;;;3.45;;
39524;SDS011;25203;50.754;6.978;2023-07-31T06:06:37;6.07;;;3.13;;
39524;SDS011;25203;50.754;6.978;2023-07-31T06:08:38;7.70;;;3.25;;
39524;SDS011;25203;50.754;6.978;2023-07-31T06:10:39;6.18;;;3.58;;
39524;SDS011;25203;50.754;6.978;2023-07-31T06:12:40;5.00;;;3.13;;
39524;SDS011;25203;50.754;6.978;2023-07-31T06:14:41;7.88;;;3.85;;
39524;SDS011;25203;50.754;6.978;2023-07-31T06:16:42;6.22;;;3.85;;
39524;SDS011;25203;50.754;6.978;2023-07-31T06:18:44;5.93;;;3.50;;
39524;SDS011;25203;50.754;6.978;2023-07-31T06:20:44;9.32;;;4.15;;
39524;SDS011;25203;50.754;6.978;2023-07-31T06:22:45;5.90;;;3.63;;
39524;SDS011;25203;50.754;6.978;2023-07-31T06:24:46;7.53;;;3.63;;
39524;SDS011;25203;50.754;6.978;2023-07-31T06:26:46;9.23;;;4.20;;
39524;SDS011;25203;50.754;6.978;2023-07-31T06:28:47;8.38;;;4.07;;
39524;SDS011;25203;50.754;6.978;2023-07-31T06:30:48;11.20;;;4.30;;
39524;SDS011;25203;50.754;6.978;2023-07-31T06:32:48;8.10;;;4.30;;
39524;SDS011;25203;50.754;6.978;2023-07-31T06:34:49;7.20;;;3.90;;
39524;SDS011;25203;50.754;6.978;2023-07-31T06:36:50;9.43;;;4.50;;
39524;SDS011;25203;50.754;6.978;2023-07-31T06:38:50;8.50;;;4.40;;
39524;SDS011;25203;50.754;6.978;2023-07-31T06:40:51;8.18;;;4.28;;
39524;SDS011;25203;50.754;6.978;2023-07-31T06:42:53;7.43;;;4.07;;
39524;SDS011;25203;50.754;6.978;2023-07-31T06:44:53;7.63;;;4.38;;
39524;SDS011;25203;50.754;6.978;2023-07-31T06:46:54;6.93;;;3.85;;
39524;SDS011;25203;50.754;6.978;2023-07-31T06:48:54;6.60;;;3.58;;
39524;SDS011;25203;50.754;6.978;2023-07-31T06:50:55;7.07;;;3.75;;
39524;SDS011;25203;50.754;6.978;2023-07-31T06:52:56;6.68;;;3.75;;
39524;SDS011;25203;50.754;6.978;2023-07-31T06:55:03;6.38;;;4.20;;
39524;SDS011;25203;50.754;6.978;2023-07-31T06:57:19;9.80;;;4.07;;
39524;SDS011;25203;50.754;6.978;2023-07-31T06:59:19;8.52;;;3.97;;
39524;SDS011;25203;50.754;6.978;2023-07-31T07:01:20;14.20;;;4.22;;
39524;SDS011;25203;50.754;6.978;2023-07-31T07:03:21;7.88;;;4.82;;
39524;SDS011;25203;50.754;6.978;2023-07-31T07:05:21;8.35;;;3.90;;
39524;SDS011;25203;50.754;6.978;2023-07-31T07:07:22;6.93;;;4.25;;
39524;SDS011;25203;50.754;6.978;2023-07-31T07:09:22;8.13;;;4.07;;
39524;SDS011;25203;50.754;6.978;2023-07-31T07:11:23;7.88;;;3.83;;
39524;SDS011;25203;50.754;6.978;2023-07-31T07:13:23;7.60;;;3.53;;
39524;SDS011;25203;50.754;6.978;2023-07-31T07:15:24;6.63;;;3.25;;
39524;SDS011;25203;50.754;6.978;2023-07-31T07:17:25;5.18;;;3.50;;
39524;SDS011;25203;50.754;6.978;2023-07-31T07:19:27;4.82;;;3.38;;
39524;SDS011;25203;50.754;6.978;2023-07-31T07:21:28;11.85;;;4.25;;
39524;SDS011;25203;50.754;6.978;2023-07-31T07:23:28;4.97;;;3.58;;
39524;SDS011;25203;50.754;6.978;2023-07-31T07:25:29;5.07;;;3.95;;
39524;SDS011;25203;50.754;6.978;2023-07-31T07:27:29;8.63;;;3.85;;
39524;SDS011;25203;50.754;6.978;2023-07-31T07:29:30;6.57;;;3.72;;
39524;SDS011;25203;50.754;6.978;2023-07-31T07:31:31;5.80;;;3.60;;
39524;SDS011;25203;50.754;6.978;2023-07-31T07:33:31;6.07;;;4.00;;
39524;SDS011;25203;50.754;6.978;2023-07-31T07:35:35;5.15;;;3.35;;
39524;SDS011;25203;50.754;6.978;2023-07-31T07:37:36;4.30;;;3.42;;
39524;SDS011;25203;50.754;6.978;2023-07-31T07:39:36;8.23;;;3.35;;
39524;SDS011;25203;50.754;6.978;2023-07-31T07:41:37;8.32;;;3.40;;
39524;SDS011;25203;50.754;6.978;2023-07-31T07:43:38;8.38;;;3.67;;
39524;SDS011;25203;50.754;6.978;2023-07-31T07:45:38;6.88;;;3.80;;
39524;SDS011;25203;50.754;6.978;2023-07-31T07:47:40;7.45;;;3.90;;
39524;SDS011;25203;50.754;6.978;2023-07-31T07:49:41;7.13;;;4.10;;
39524;SDS011;25203;50.754;6.978;2023-07-31T07:51:42;8.65;;;4.30;;
39524;SDS011;25203;50.754;6.978;2023-07-31T07:53:42;10.70;;;4.40;;
39524;SDS011;25203;50.754;6.978;2023-07-31T07:55:43;8.00;;;4.07;;
39524;SDS011;25203;50.754;6.978;2023-07-31T07:57:43;9.68;;;4.30;;
39524;SDS011;25203;50.754;6.978;2023-07-31T07:59:44;9.38;;;4.50;;
39524;SDS011;25203;50.754;6.978;2023-07-31T08:01:45;7.03;;;4.40;;
39524;SDS011;25203;50.754;6.978;2023-07-31T08:03:46;8.77;;;4.40;;
39524;SDS011;25203;50.754;6.978;2023-07-31T08:05:47;12.38;;;4.57;;
39524;SDS011;25203;50.754;6.978;2023-07-31T08:07:48;7.35;;;4.75;;
39524;SDS011;25203;50.754;6.978;2023-07-31T08:09:49;8.52;;;3.65;;
39524;SDS011;25203;50.754;6.978;2023-07-31T08:11:49;8.82;;;3.63;;
39524;SDS011;25203;50.754;6.978;2023-07-31T08:13:50;5.70;;;3.95;;
39524;SDS011;25203;50.754;6.978;2023-07-31T08:15:50;7.13;;;3.60;;
39524;SDS011;25203;50.754;6.978;2023-07-31T08:17:51;5.78;;;3.72;;
39524;SDS011;25203;50.754;6.978;2023-07-31T08:19:52;8.18;;;3.70;;
39524;SDS011;25203;50.754;6.978;2023-07-31T08:21:52;4.07;;;3.38;;
39524;SDS011;25203;50.754;6.978;2023-07-31T08:23:53;7.50;;;3.60;;
39524;SDS011;25203;50.754;6.978;2023-07-31T08:25:53;6.10;;;3.45;;
39524;SDS011;25203;50.754;6.978;2023-07-31T08:27:54;5.38;;;3.28;;
39524;SDS011;25203;50.754;6.978;2023-07-31T08:29:55;5.95;;;3.08;;
39524;SDS011;25203;50.754;6.978;2023-07-31T08:31:56;6.20;;;3.08;;
39524;SDS011;25203;50.754;6.978;2023-07-31T08:33:56;5.68;;;3.10;;
39524;SDS011;25203;50.754;6.978;2023-07-31T08:35:57;10.27;;;3.17;;
39524;SDS011;25203;50.754;6.978;2023-07-31T08:37:59;6.07;;;3.10;;
39524;SDS011;25203;50.754;6.978;2023-07-31T08:39:59;5.50;;;2.78;;
39524;SDS011;25203;50.754;6.978;2023-07-31T08:42:00;7.20;;;3.38;;
39524;SDS011;25203;50.754;6.978;2023-07-31T08:44:01;8.32;;;3.45;;
39524;SDS011;25203;50.754;6.978;2023-07-31T08:46:02;4.53;;;2.88;;
39524;SDS011;25203;50.754;6.978;2023-07-31T08:48:03;5.80;;;2.90;;
39524;SDS011;25203;50.754;6.978;2023-07-31T08:50:04;3.67;;;2.60;;
39524;SDS011;25203;50.754;6.978;2023-07-31T08:52:06;4.28;;;2.70;;
39524;SDS011;25203;50.754;6.978;2023-07-31T08:54:07;5.93;;;2.95;;
39524;SDS011;25203;50.754;6.978;2023-07-31T08:56:07;6.53;;;2.80;;
39524;SDS011;25203;50.754;6.978;2023-07-31T08:58:08;4.93;;;2.95;;
39524;SDS011;25203;50.754;6.978;2023-07-31T09:00:13;5.47;;;2.35;;
39524;SDS011;25203;50.754;6.978;2023-07-31T09:02:14;3.85;;;2.28;;
39524;SDS011;25203;50.754;6.978;2023-07-31T09:04:17;5.22;;;2.80;;
39524;SDS011;25203;50.754;6.978;2023-07-31T09:06:20;3.15;;;2.30;;
39524;SDS011;25203;50.754;6.978;2023-07-31T09:08:24;4.70;;;2.72;;
39524;SDS011;25203;50.754;6.978;2023-07-31T09:10:29;3.53;;;2.35;;
39524;SDS011;25203;50.754;6.978;2023-07-31T09:12:29;3.42;;;2.20;;
39524;SDS011;25203;50.754;6.978;2023-07-31T09:14:30;3.45;;;2.28;;
39524;SDS011;25203;50.754;6.978;2023-07-31T09:16:32;4.20;;;2.45;;
39524;SDS011;25203;50.754;6.978;2023-07-31T09:18:38;3.58;;;2.20;;
39524;SDS011;25203;50.754;6.978;2023-07-31T09:21:01;5.03;;;2.30;;
39524;SDS011;25203;50.754;6.978;2023-07-31T09:23:06;6.85;;;3.00;;
39524;SDS011;25203;50.754;6.978;2023-07-31T09:27:21;5.32;;;2.35;;
39524;SDS011;25203;50.754;6.978;2023-07-31T09:29:22;2.80;;;2.15;;
39524;SDS011;25203;50.754;6.978;2023-07-31T09:31:33;5.50;;;2.80;;
39524;SDS011;25203;50.754;6.978;2023-07-31T09:33:47;4.03;;;2.33;;
39524;SDS011;25203;50.754;6.978;2023-07-31T09:35:55;4.50;;;2.40;;
39524;SDS011;25203;50.754;6.978;2023-07-31T09:38:06;4.22;;;2.15;;
39524;SDS011;25203;50.754;6.978;2023-07-31T09:40:06;3.75;;;2.17;;
39524;SDS011;25203;50.754;6.978;2023-07-31T09:42:07;5.28;;;2.30;;
39524;SDS011;25203;50.754;6.978;2023-07-31T09:44:08;4.88;;;1.98;;
39524;SDS011;25203;50.754;6.978;2023-07-31T09:46:12;3.97;;;2.05;;
39524;SDS011;25203;50.754;6.978;2023-07-31T09:48:14;4.18;;;2.15;;
39524;SDS011;25203;50.754;6.978;2023-07-31T09:50:19;3.63;;;2.00;;
39524;SDS011;25203;50.754;6.978;2023-07-31T09:52:21;3.33;;;2.15;;
39524;SDS011;25203;50.754;6.978;2023-07-31T09:54:22;3.78;;;2.25;;
39524;SDS011;25203;50.754;6.978;2023-07-31T09:56:23;3.95;;;2.13;;
39524;SDS011;25203;50.754;6.978;2023-07-31T09:58:25;2.92;;;2.08;;
39524;SDS011;25203;50.754;6.978;2023-07-31T10:00:29;3.53;;;1.90;;
39524;SDS011;25203;50.754;6.978;2023-07-31T10:02:31;12.50;;;11.43;;
39524;SDS011;25203;50.754;6.978;2023-07-31T10:04:32;5.07;;;3.22;;
39524;SDS011;25203;50.754;6.978;2023-07-31T10:06:33;14.07;;;4.95;;
39524;SDS011;25203;50.754;6.978;2023-07-31T10:08:35;5.35;;;2.35;;
39524;SDS011;25203;50.754;6.978;2023-07-31T10:10:37;5.78;;;2.25;;
39524;SDS011;25203;50.754;6.978;2023-07-31T10:12:40;3.03;;;1.90;;
39524;SDS011;25203;50.754;6.978;2023-07-31T10:14:43;3.92;;;1.95;;
39524;SDS011;25203;50.754;6.978;2023-07-31T10:16:44;7.03;;;2.67;;
39524;SDS011;25203;50.754;6.978;2023-07-31T10:18:45;6.03;;;2.13;;
39524;SDS011;25203;50.754;6.978;2023-07-31T10:20:46;5.45;;;2.38;;
39524;SDS011;25203;50.754;6.978;2023-07-31T10:22:48;4.53;;;2.17;;
39524;SDS011;25203;50.754;6.978;2023-07-31T10:24:49;6.28;;;2.50;;
39524;SDS011;25203;50.754;6.978;2023-07-31T10:26:52;2.97;;;2.10;;
39524;SDS011;25203;50.754;6.978;2023-07-31T10:28:57;5.97;;;2.22;;
39524;SDS011;25203;50.754;6.978;2023-07-31T10:30:59;7.05;;;2.13;;
39524;SDS011;25203;50.754;6.978;2023-07-31T10:33:02;3.75;;;2.00;;
39524;SDS011;25203;50.754;6.978;2023-07-31T10:35:03;4.80;;;2.33;;
39524;SDS011;25203;50.754;6.978;2023-07-31T10:38:06;3.92;;;2.03;;
39524;SDS011;25203;50.754;6.978;2023-07-31T10:39:39;5.60;;;2.00;;
39524;SDS011;25203;50.754;6.978;2023-07-31T10:41:40;3.03;;;1.98;;
39524;SDS011;25203;50.754;6.978;2023-07-31T10:43:41;9.60;;;2.65;;
39524;SDS011;25203;50.754;6.978;2023-07-31T10:45:42;3.40;;;1.75;;
39524;SDS011;25203;50.754;6.978;2023-07-31T10:47:43;4.25;;;1.80;;
39524;SDS011;25203;50.754;6.978;2023-07-31T10:49:45;5.15;;;1.60;;
39524;SDS011;25203;50.754;6.978;2023-07-31T10:51:47;3.42;;;1.90;;
39524;SDS011;25203;50.754;6.978;2023-07-31T10:53:47;2.67;;;1.50;;
39524;SDS011;25203;50.754;6.978;2023-07-31T10:55:48;3.78;;;1.80;;
39524;SDS011;25203;50.754;6.978;2023-07-31T10:57:51;3.47;;;2.10;;
39524;SDS011;25203;50.754;6.978;2023-07-31T10:59:53;3.72;;;1.75;;
39524;SDS011;25203;50.754;6.978;2023-07-31T11:02:27;3.00;;;1.30;;
39524;SDS011;25203;50.754;6.978;2023-07-31T11:04:30;3.00;;;1.90;;
39524;SDS011;25203;50.754;6.978;2023-07-31T11:06:32;2.63;;;1.50;;
39524;SDS011;25203;50.754;6.978;2023-07-31T11:08:43;3.72;;;1.70;;
39524;SDS011;25203;50.754;6.978;2023-07-31T11:10:46;2.35;;;1.45;;
39524;SDS011;25203;50.754;6.978;2023-07-31T11:12:47;3.97;;;1.38;;
39524;SDS011;25203;50.754;6.978;2023-07-31T11:14:54;3.83;;;1.30;;
39524;SDS011;25203;50.754;6.978;2023-07-31T11:16:56;2.85;;;1.27;;
39524;SDS011;25203;50.754;6.978;2023-07-31T11:18:57;4.03;;;1.50;;
39524;SDS011;25203;50.754;6.978;2023-07-31T11:20:57;2.00;;;1.38;;
39524;SDS011;25203;50.754;6.978;2023-07-31T11:23:02;2.80;;;1.33;;
39524;SDS011;25203;50.754;6.978;2023-07-31T11:25:03;1.65;;;1.17;;
39524;SDS011;25203;50.754;6.978;2023-07-31T11:27:06;2.60;;;0.90;;
39524;SDS011;25203;50.754;6.978;2023-07-31T11:29:11;1.50;;;1.00;;
39524;SDS011;25203;50.754;6.978;2023-07-31T11:31:11;3.58;;;1.23;;
39524;SDS011;25203;50.754;6.978;2023-07-31T11:33:12;2.20;;;1.20;;
39524;SDS011;25203;50.754;6.978;2023-07-31T11:35:13;2.92;;;1.02;;
39524;SDS011;25203;50.754;6.978;2023-07-31T11:37:14;2.00;;;0.98;;
39524;SDS011;25203;50.754;6.978;2023-07-31T11:39:15;1.30;;;1.00;;
39524;SDS011;25203;50.754;6.978;2023-07-31T11:41:16;3.20;;;1.13;;
39524;SDS011;25203;50.754;6.978;2023-07-31T11:43:17;5.35;;;1.65;;
39524;SDS011;25203;50.754;6.978;2023-07-31T11:45:18;4.60;;;1.15;;
39524;SDS011;25203;50.754;6.978;2023-07-31T11:47:19;2.25;;;1.10;;
39524;SDS011;25203;50.754;6.978;2023-07-31T11:49:20;1.10;;;0.98;;
39524;SDS011;25203;50.754;6.978;2023-07-31T11:51:21;1.13;;;0.90;;
39524;SDS011;25203;50.754;6.978;2023-07-31T11:53:26;2.20;;;1.08;;
39524;SDS011;25203;50.754;6.978;2023-07-31T11:55:44;4.38;;;1.10;;
39524;SDS011;25203;50.754;6.978;2023-07-31T11:57:46;1.40;;;0.90;;
39524;SDS011;25203;50.754;6.978;2023-07-31T11:59:47;0.90;;;0.88;;
39524;SDS011;25203;50.754;6.978;2023-07-31T12:01:49;2.40;;;1.13;;
39524;SDS011;25203;50.754;6.978;2023-07-31T12:03:53;1.20;;;1.00;;
39524;SDS011;25203;50.754;6.978;2023-07-31T12:05:54;1.20;;;1.10;;
39524;SDS011;25203;50.754;6.978;2023-07-31T12:07:55;1.55;;;1.10;;
39524;SDS011;25203;50.754;6.978;2023-07-31T12:09:55;1.40;;;1.10;;
39524;SDS011;25203;50.754;6.978;2023-07-31T12:11:56;1.40;;;1.30;;
39524;SDS011;25203;50.754;6.978;2023-07-31T12:13:57;3.42;;;1.35;;
39524;SDS011;25203;50.754;6.978;2023-07-31T12:15:58;1.90;;;1.38;;
39524;SDS011;25203;50.754;6.978;2023-07-31T12:18:05;1.88;;;1.38;;
39524;SDS011;25203;50.754;6.978;2023-07-31T12:20:10;1.88;;;1.58;;
39524;SDS011;25203;50.754;6.978;2023-07-31T12:22:12;1.75;;;1.45;;
39524;SDS011;25203;50.754;6.978;2023-07-31T12:24:14;3.72;;;1.63;;